X  Schließen Metar Luftfahrt Wetterdaten     EDDL Düsseldorf Airport
Temperatur
7°C Temperatur
5°C Taupunkt
87% Feuchtigkeit



Wind
10 KM/H
6 MPH
3 M/S
5 KTS



130°
SO
Aktuelle Wetterlage

Klar Klar
Luftdruck 1017.92 (hPa) - 30.06 (inHg)
Sichtweite 6.2 (Meile) - 10 (km)
Flughafen
Flughafen Code EDDL

Position : Düsseldorf Airport
Entfernung: 100 (km)

Metar:
EDDL 191850Z 13005KT CAVOK 07/05 Q1018 BECMG 15011KT

Zeit: 19-10-2020 20:50 CEST